sensor_id;sensor_type;location;lat;lon;timestamp;pressure;altitude;pressure_sealevel;temperature;humidity
79612;BME280;69094;48.154;11.536;2024-03-23T00:53:08;94930.94;;;11.75;50.50
79612;BME280;69094;48.154;11.536;2024-03-23T00:55:33;94928.91;;;11.72;50.66
79612;BME280;69094;48.154;11.536;2024-03-23T00:57:58;94928.91;;;11.72;50.38
79612;BME280;69094;48.154;11.536;2024-03-23T01:00:24;94919.75;;;11.64;50.96
79612;BME280;69094;48.154;11.536;2024-03-23T01:02:49;94923.03;;;11.70;50.89
79612;BME280;69094;48.154;11.536;2024-03-23T01:05:15;94912.78;;;11.67;50.80
79612;BME280;69094;48.154;11.536;2024-03-23T01:07:40;94905.53;;;11.71;50.37
79612;BME280;69094;48.154;11.536;2024-03-23T01:10:05;94904.94;;;11.78;50.42
79612;BME280;69094;48.154;11.536;2024-03-23T01:12:31;94896.31;;;11.76;50.65
79612;BME280;69094;48.154;11.536;2024-03-23T01:14:56;94895.84;;;11.74;50.66
79612;BME280;69094;48.154;11.536;2024-03-23T01:17:21;94889.63;;;11.73;50.85
79612;BME280;69094;48.154;11.536;2024-03-23T01:19:47;94892.59;;;11.68;50.72
79612;BME280;69094;48.154;11.536;2024-03-23T01:22:12;94891.38;;;11.66;51.19
79612;BME280;69094;48.154;11.536;2024-03-23T01:24:38;94891.63;;;11.60;51.30
79612;BME280;69094;48.154;11.536;2024-03-23T01:27:03;94898.19;;;11.59;51.48
79612;BME280;69094;48.154;11.536;2024-03-23T01:29:29;94890.97;;;11.51;51.73
79612;BME280;69094;48.154;11.536;2024-03-23T01:31:54;94886.47;;;11.43;51.91
79612;BME280;69094;48.154;11.536;2024-03-23T01:34:19;94883.16;;;11.37;52.03
79612;BME280;69094;48.154;11.536;2024-03-23T01:36:46;94882.88;;;11.27;52.36
79612;BME280;69094;48.154;11.536;2024-03-23T01:41:47;94870.84;;;11.28;52.42
79612;BME280;69094;48.154;11.536;2024-03-23T01:44:12;94874.16;;;11.21;52.86
79612;BME280;69094;48.154;11.536;2024-03-23T01:46:39;94860.88;;;11.19;53.10
79612;BME280;69094;48.154;11.536;2024-03-23T01:49:06;94856.13;;;11.16;53.08
79612;BME280;69094;48.154;11.536;2024-03-23T01:51:33;94857.88;;;11.09;52.96
79612;BME280;69094;48.154;11.536;2024-03-23T01:54:00;94863.75;;;11.11;53.08
79612;BME280;69094;48.154;11.536;2024-03-23T01:56:29;94865.00;;;11.13;53.64
79612;BME280;69094;48.154;11.536;2024-03-23T01:58:55;94855.38;;;11.04;53.79
79612;BME280;69094;48.154;11.536;2024-03-23T02:01:20;94856.41;;;10.99;53.75
79612;BME280;69094;48.154;11.536;2024-03-23T02:03:46;94855.03;;;11.05;53.49
79612;BME280;69094;48.154;11.536;2024-03-23T02:06:11;94844.53;;;10.91;54.07
79612;BME280;69094;48.154;11.536;2024-03-23T02:08:37;94842.38;;;10.85;54.22
79612;BME280;69094;48.154;11.536;2024-03-23T02:11:02;94833.09;;;10.86;54.74
79612;BME280;69094;48.154;11.536;2024-03-23T02:13:28;94837.63;;;10.82;54.22
79612;BME280;69094;48.154;11.536;2024-03-23T02:15:53;94833.91;;;10.74;55.55
79612;BME280;69094;48.154;11.536;2024-03-23T02:18:19;94843.88;;;10.70;55.19
79612;BME280;69094;48.154;11.536;2024-03-23T02:20:44;94838.22;;;10.63;55.58
79612;BME280;69094;48.154;11.536;2024-03-23T02:23:13;94836.97;;;10.60;55.69
79612;BME280;69094;48.154;11.536;2024-03-23T02:25:39;94827.38;;;10.50;56.10
79612;BME280;69094;48.154;11.536;2024-03-23T02:28:05;94829.75;;;10.52;56.12
79612;BME280;69094;48.154;11.536;2024-03-23T02:30:30;94823.06;;;10.49;56.27
79612;BME280;69094;48.154;11.536;2024-03-23T02:32:56;94823.41;;;10.48;56.42
79612;BME280;69094;48.154;11.536;2024-03-23T02:35:21;94809.03;;;10.35;56.71
79612;BME280;69094;48.154;11.536;2024-03-23T02:37:47;94820.59;;;10.44;56.35
79612;BME280;69094;48.154;11.536;2024-03-23T02:40:16;94794.31;;;10.36;56.74
79612;BME280;69094;48.154;11.536;2024-03-23T02:42:41;94800.06;;;10.34;56.61
79612;BME280;69094;48.154;11.536;2024-03-23T02:45:07;94792.63;;;10.31;56.92
79612;BME280;69094;48.154;11.536;2024-03-23T02:47:33;94795.88;;;10.37;57.01
79612;BME280;69094;48.154;11.536;2024-03-23T02:49:58;94788.66;;;10.29;57.33
79612;BME280;69094;48.154;11.536;2024-03-23T02:52:24;94792.63;;;10.31;57.26
79612;BME280;69094;48.154;11.536;2024-03-23T02:54:49;94786.22;;;10.27;57.49
79612;BME280;69094;48.154;11.536;2024-03-23T02:57:15;94798.06;;;10.31;57.97
79612;BME280;69094;48.154;11.536;2024-03-23T02:59:41;94791.78;;;10.31;58.15
79612;BME280;69094;48.154;11.536;2024-03-23T03:02:06;94788.28;;;10.30;57.84
79612;BME280;69094;48.154;11.536;2024-03-23T03:04:32;94791.91;;;10.34;57.70
79612;BME280;69094;48.154;11.536;2024-03-23T03:06:58;94786.47;;;10.34;57.72
79612;BME280;69094;48.154;11.536;2024-03-23T03:09:23;94784.91;;;10.33;58.22
79612;BME280;69094;48.154;11.536;2024-03-23T03:11:49;94785.25;;;10.32;58.14
79612;BME280;69094;48.154;11.536;2024-03-23T03:14:14;94792.25;;;10.33;58.33
79612;BME280;69094;48.154;11.536;2024-03-23T03:16:39;94781.28;;;10.29;58.76
79612;BME280;69094;48.154;11.536;2024-03-23T03:19:05;94778.06;;;10.27;59.07
79612;BME280;69094;48.154;11.536;2024-03-23T03:21:31;94775.84;;;10.29;59.27
79612;BME280;69094;48.154;11.536;2024-03-23T03:23:57;94780.25;;;10.22;59.41
79612;BME280;69094;48.154;11.536;2024-03-23T03:26:23;94782.28;;;10.12;59.46
79612;BME280;69094;48.154;11.536;2024-03-23T03:28:49;94784.53;;;10.10;59.92
79612;BME280;69094;48.154;11.536;2024-03-23T03:31:15;94776.06;;;10.00;60.09
79612;BME280;69094;48.154;11.536;2024-03-23T03:33:41;94774.34;;;9.95;60.22
79612;BME280;69094;48.154;11.536;2024-03-23T03:36:07;94773.56;;;9.95;60.42
79612;BME280;69094;48.154;11.536;2024-03-23T03:38:32;94762.25;;;9.92;60.20
79612;BME280;69094;48.154;11.536;2024-03-23T03:41:00;94761.13;;;9.81;60.79
79612;BME280;69094;48.154;11.536;2024-03-23T03:43:26;94747.06;;;9.79;60.94
79612;BME280;69094;48.154;11.536;2024-03-23T03:45:52;94760.44;;;9.72;61.23
79612;BME280;69094;48.154;11.536;2024-03-23T03:48:18;94752.75;;;9.74;61.37
79612;BME280;69094;48.154;11.536;2024-03-23T03:50:43;94743.22;;;9.68;61.16
79612;BME280;69094;48.154;11.536;2024-03-23T03:53:08;94743.44;;;9.63;61.51
79612;BME280;69094;48.154;11.536;2024-03-23T03:55:34;94747.75;;;9.64;61.86
79612;BME280;69094;48.154;11.536;2024-03-23T03:57:59;94743.66;;;9.58;62.08
79612;BME280;69094;48.154;11.536;2024-03-23T04:00:24;94741.63;;;9.55;62.06
79612;BME280;69094;48.154;11.536;2024-03-23T04:02:50;94738.78;;;9.51;62.07
79612;BME280;69094;48.154;11.536;2024-03-23T04:05:16;94734.34;;;9.46;62.52
79612;BME280;69094;48.154;11.536;2024-03-23T04:07:42;94732.31;;;9.43;62.15
79612;BME280;69094;48.154;11.536;2024-03-23T04:10:07;94724.63;;;9.45;62.28
79612;BME280;69094;48.154;11.536;2024-03-23T04:12:34;94713.66;;;9.42;62.54
79612;BME280;69094;48.154;11.536;2024-03-23T04:14:59;94719.53;;;9.44;62.15
79612;BME280;69094;48.154;11.536;2024-03-23T04:17:24;94708.34;;;9.45;62.15
79612;BME280;69094;48.154;11.536;2024-03-23T04:19:50;94702.00;;;9.41;62.09
79612;BME280;69094;48.154;11.536;2024-03-23T04:22:17;94697.25;;;9.51;61.92
79612;BME280;69094;48.154;11.536;2024-03-23T04:24:43;94703.16;;;9.53;61.50
79612;BME280;69094;48.154;11.536;2024-03-23T04:27:08;94695.09;;;9.56;61.60
79612;BME280;69094;48.154;11.536;2024-03-23T04:29:33;94691.03;;;9.62;61.08
79612;BME280;69094;48.154;11.536;2024-03-23T04:31:59;94690.72;;;9.52;61.85
79612;BME280;69094;48.154;11.536;2024-03-23T04:34:24;94681.66;;;9.60;61.32
79612;BME280;69094;48.154;11.536;2024-03-23T04:36:50;94689.00;;;9.72;60.85
79612;BME280;69094;48.154;11.536;2024-03-23T04:39:15;94659.44;;;9.70;60.45
79612;BME280;69094;48.154;11.536;2024-03-23T04:41:41;94665.56;;;9.79;60.26
79612;BME280;69094;48.154;11.536;2024-03-23T04:44:06;94659.22;;;9.75;60.79
79612;BME280;69094;48.154;11.536;2024-03-23T04:46:31;94665.91;;;9.78;60.10
79612;BME280;69094;48.154;11.536;2024-03-23T04:48:57;94662.25;;;9.86;59.95
79612;BME280;69094;48.154;11.536;2024-03-23T04:51:23;94657.97;;;9.85;59.52
79612;BME280;69094;48.154;11.536;2024-03-23T04:53:48;94653.78;;;9.87;59.62
79612;BME280;69094;48.154;11.536;2024-03-23T04:56:14;94649.25;;;9.79;59.72
79612;BME280;69094;48.154;11.536;2024-03-23T04:58:40;94640.88;;;9.84;59.37
79612;BME280;69094;48.154;11.536;2024-03-23T05:01:05;94636.31;;;9.88;59.38
79612;BME280;69094;48.154;11.536;2024-03-23T05:03:30;94640.03;;;9.96;58.75
79612;BME280;69094;48.154;11.536;2024-03-23T05:05:56;94634.72;;;10.00;58.54
79612;BME280;69094;48.154;11.536;2024-03-23T05:08:21;94622.63;;;9.97;58.64
79612;BME280;69094;48.154;11.536;2024-03-23T05:10:46;94631.31;;;10.03;57.87
79612;BME280;69094;48.154;11.536;2024-03-23T05:13:12;94624.84;;;10.07;57.58
79612;BME280;69094;48.154;11.536;2024-03-23T05:15:37;94622.56;;;10.09;57.54
79612;BME280;69094;48.154;11.536;2024-03-23T05:18:04;94622.66;;;10.13;57.23
79612;BME280;69094;48.154;11.536;2024-03-23T05:20:30;94622.00;;;10.16;57.00
79612;BME280;69094;48.154;11.536;2024-03-23T05:22:56;94618.13;;;10.17;56.81
79612;BME280;69094;48.154;11.536;2024-03-23T05:25:21;94609.28;;;10.20;56.76
79612;BME280;69094;48.154;11.536;2024-03-23T05:27:46;94615.16;;;10.22;56.73
79612;BME280;69094;48.154;11.536;2024-03-23T05:30:12;94615.97;;;10.23;56.37
79612;BME280;69094;48.154;11.536;2024-03-23T05:32:38;94608.16;;;10.21;56.55
79612;BME280;69094;48.154;11.536;2024-03-23T05:35:06;94608.81;;;10.30;56.67
79612;BME280;69094;48.154;11.536;2024-03-23T05:37:32;94613.34;;;10.39;56.04
79612;BME280;69094;48.154;11.536;2024-03-23T05:39:59;94614.31;;;10.46;56.09
79612;BME280;69094;48.154;11.536;2024-03-23T05:42:25;94611.09;;;10.56;55.99
79612;BME280;69094;48.154;11.536;2024-03-23T05:44:50;94603.31;;;10.71;54.40
79612;BME280;69094;48.154;11.536;2024-03-23T05:47:15;94605.00;;;10.91;54.68
79612;BME280;69094;48.154;11.536;2024-03-23T05:49:42;94603.44;;;11.06;54.24
79612;BME280;69094;48.154;11.536;2024-03-23T05:52:10;94595.44;;;11.13;54.05
79612;BME280;69094;48.154;11.536;2024-03-23T05:54:36;94601.19;;;11.28;53.05
79612;BME280;69094;48.154;11.536;2024-03-23T05:57:02;94587.47;;;11.40;52.62
79612;BME280;69094;48.154;11.536;2024-03-23T05:59:28;94590.78;;;11.65;51.92
79612;BME280;69094;48.154;11.536;2024-03-23T06:01:54;94585.50;;;11.88;51.31
79612;BME280;69094;48.154;11.536;2024-03-23T06:04:19;94578.59;;;12.14;50.81
79612;BME280;69094;48.154;11.536;2024-03-23T06:06:45;94572.06;;;12.38;50.33
79612;BME280;69094;48.154;11.536;2024-03-23T06:09:11;94570.16;;;12.61;49.41
79612;BME280;69094;48.154;11.536;2024-03-23T06:11:36;94566.66;;;12.61;49.45
79612;BME280;69094;48.154;11.536;2024-03-23T06:14:02;94564.97;;;12.76;48.96
79612;BME280;69094;48.154;11.536;2024-03-23T06:16:27;94558.38;;;13.00;48.24
79612;BME280;69094;48.154;11.536;2024-03-23T06:18:53;94548.78;;;13.32;47.91
79612;BME280;69094;48.154;11.536;2024-03-23T06:21:20;94546.47;;;13.34;47.37
79612;BME280;69094;48.154;11.536;2024-03-23T06:23:46;94545.31;;;13.62;46.94
79612;BME280;69094;48.154;11.536;2024-03-23T06:26:17;94534.91;;;13.71;46.45
79612;BME280;69094;48.154;11.536;2024-03-23T06:28:43;94533.16;;;13.90;45.85
79612;BME280;69094;48.154;11.536;2024-03-23T06:31:11;94532.28;;;13.82;46.09
79612;BME280;69094;48.154;11.536;2024-03-23T06:33:37;94529.28;;;14.21;45.31
79612;BME280;69094;48.154;11.536;2024-03-23T06:36:04;94512.28;;;14.42;44.15
79612;BME280;69094;48.154;11.536;2024-03-23T06:38:30;94511.00;;;14.66;43.18
79612;BME280;69094;48.154;11.536;2024-03-23T06:40:55;94499.66;;;14.68;43.51
79612;BME280;69094;48.154;11.536;2024-03-23T06:43:20;94497.06;;;14.85;42.93
79612;BME280;69094;48.154;11.536;2024-03-23T06:45:55;94490.56;;;15.01;42.74
79612;BME280;69094;48.154;11.536;2024-03-23T06:48:20;94488.28;;;15.10;42.55
79612;BME280;69094;48.154;11.536;2024-03-23T06:50:46;94492.41;;;15.45;42.71
79612;BME280;69094;48.154;11.536;2024-03-23T06:53:12;94483.16;;;15.67;42.72
79612;BME280;69094;48.154;11.536;2024-03-23T06:55:38;94481.78;;;15.99;41.55
79612;BME280;69094;48.154;11.536;2024-03-23T06:58:04;94481.06;;;16.23;41.19
79612;BME280;69094;48.154;11.536;2024-03-23T07:00:29;94479.56;;;16.40;41.30
79612;BME280;69094;48.154;11.536;2024-03-23T07:02:55;94481.97;;;16.77;40.77
79612;BME280;69094;48.154;11.536;2024-03-23T07:05:20;94476.75;;;16.19;41.47
79612;BME280;69094;48.154;11.536;2024-03-23T07:07:45;94465.00;;;15.41;43.24
79612;BME280;69094;48.154;11.536;2024-03-23T07:10:11;94466.69;;;15.05;44.43
79612;BME280;69094;48.154;11.536;2024-03-23T07:12:36;94487.34;;;14.88;45.12
79612;BME280;69094;48.154;11.536;2024-03-23T07:15:02;94481.75;;;14.77;45.51
79612;BME280;69094;48.154;11.536;2024-03-23T07:17:28;94471.41;;;14.60;46.01
79612;BME280;69094;48.154;11.536;2024-03-23T07:19:53;94473.47;;;14.33;46.48
79612;BME280;69094;48.154;11.536;2024-03-23T07:22:18;94485.25;;;14.37;46.68
79612;BME280;69094;48.154;11.536;2024-03-23T07:24:44;94482.16;;;14.38;46.61
79612;BME280;69094;48.154;11.536;2024-03-23T07:27:09;94475.44;;;14.36;46.78
79612;BME280;69094;48.154;11.536;2024-03-23T07:29:38;94497.22;;;14.21;47.22
79612;BME280;69094;48.154;11.536;2024-03-23T07:32:04;94496.25;;;14.07;47.58
79612;BME280;69094;48.154;11.536;2024-03-23T07:34:29;94498.69;;;14.15;47.06
79612;BME280;69094;48.154;11.536;2024-03-23T07:36:55;94523.22;;;14.08;47.71
79612;BME280;69094;48.154;11.536;2024-03-23T07:39:20;94536.75;;;13.94;49.00
79612;BME280;69094;48.154;11.536;2024-03-23T07:41:45;94562.50;;;13.63;52.47
79612;BME280;69094;48.154;11.536;2024-03-23T07:44:11;94580.38;;;13.10;56.69
79612;BME280;69094;48.154;11.536;2024-03-23T07:46:36;94600.94;;;12.81;60.27
79612;BME280;69094;48.154;11.536;2024-03-23T07:49:04;94581.13;;;12.22;62.01
79612;BME280;69094;48.154;11.536;2024-03-23T07:51:29;94590.28;;;11.95;63.04
79612;BME280;69094;48.154;11.536;2024-03-23T07:53:55;94592.03;;;11.68;nan
79612;BME280;69094;48.154;11.536;2024-03-23T07:56:20;94600.69;;;11.38;67.20
79612;BME280;69094;48.154;11.536;2024-03-23T07:58:47;94594.53;;;11.09;68.68
79612;BME280;69094;48.154;11.536;2024-03-23T08:01:15;94614.72;;;10.92;69.91
79612;BME280;69094;48.154;11.536;2024-03-23T08:03:42;94632.63;;;10.77;71.01
79612;BME280;69094;48.154;11.536;2024-03-23T08:06:10;94630.34;;;10.64;72.51
79612;BME280;69094;48.154;11.536;2024-03-23T08:08:35;94635.47;;;10.53;73.85
79612;BME280;69094;48.154;11.536;2024-03-23T08:11:01;94642.19;;;10.43;74.39
79612;BME280;69094;48.154;11.536;2024-03-23T08:13:27;94636.47;;;10.32;75.63
79612;BME280;69094;48.154;11.536;2024-03-23T08:15:52;94647.59;;;10.15;78.19
79612;BME280;69094;48.154;11.536;2024-03-23T08:18:17;94657.94;;;9.97;79.40
79612;BME280;69094;48.154;11.536;2024-03-23T08:20:43;94661.91;;;9.87;79.89
79612;BME280;69094;48.154;11.536;2024-03-23T08:23:08;94675.41;;;9.84;80.55
79612;BME280;69094;48.154;11.536;2024-03-23T08:25:34;94679.38;;;9.74;81.77
79612;BME280;69094;48.154;11.536;2024-03-23T08:28:00;94707.09;;;9.67;82.35
79612;BME280;69094;48.154;11.536;2024-03-23T08:30:26;94722.03;;;9.61;84.03
79612;BME280;69094;48.154;11.536;2024-03-23T08:32:52;94729.47;;;9.27;84.62
79612;BME280;69094;48.154;11.536;2024-03-23T08:35:17;94739.59;;;9.06;83.74
79612;BME280;69094;48.154;11.536;2024-03-23T08:37:43;94744.25;;;9.05;84.35
79612;BME280;69094;48.154;11.536;2024-03-23T08:40:08;94750.81;;;9.04;84.38
79612;BME280;69094;48.154;11.536;2024-03-23T08:42:34;94748.63;;;8.98;82.76
79612;BME280;69094;48.154;11.536;2024-03-23T08:45:00;94756.72;;;8.86;83.73
79612;BME280;69094;48.154;11.536;2024-03-23T08:47:25;94752.56;;;8.88;82.95
79612;BME280;69094;48.154;11.536;2024-03-23T08:49:51;94755.16;;;8.63;84.08
79612;BME280;69094;48.154;11.536;2024-03-23T08:52:16;94765.91;;;8.60;84.61
79612;BME280;69094;48.154;11.536;2024-03-23T08:54:42;94767.47;;;8.61;84.21
79612;BME280;69094;48.154;11.536;2024-03-23T08:57:08;94772.09;;;8.60;83.43
79612;BME280;69094;48.154;11.536;2024-03-23T08:59:33;94781.19;;;8.65;84.56
79612;BME280;69094;48.154;11.536;2024-03-23T09:01:59;94786.13;;;8.62;83.88
79612;BME280;69094;48.154;11.536;2024-03-23T09:04:25;94794.59;;;8.61;84.41
79612;BME280;69094;48.154;11.536;2024-03-23T09:06:50;94804.69;;;8.52;85.02
79612;BME280;69094;48.154;11.536;2024-03-23T09:09:16;94814.44;;;8.53;85.38
79612;BME280;69094;48.154;11.536;2024-03-23T09:11:42;94809.00;;;8.53;85.59
79612;BME280;69094;48.154;11.536;2024-03-23T09:14:07;94798.16;;;8.53;85.23
79612;BME280;69094;48.154;11.536;2024-03-23T09:16:34;94791.41;;;8.59;84.95
79612;BME280;69094;48.154;11.536;2024-03-23T09:18:59;94796.78;;;8.68;85.87
79612;BME280;69094;48.154;11.536;2024-03-23T09:21:24;94799.06;;;8.57;85.71
79612;BME280;69094;48.154;11.536;2024-03-23T09:23:50;94799.34;;;8.64;85.58
79612;BME280;69094;48.154;11.536;2024-03-23T09:26:15;94809.88;;;8.66;85.68
79612;BME280;69094;48.154;11.536;2024-03-23T09:28:41;94800.69;;;8.58;86.64
79612;BME280;69094;48.154;11.536;2024-03-23T09:31:07;94807.81;;;8.62;86.78
79612;BME280;69094;48.154;11.536;2024-03-23T09:33:34;94808.94;;;8.61;86.94
79612;BME280;69094;48.154;11.536;2024-03-23T09:36:09;94811.56;;;8.49;86.82
79612;BME280;69094;48.154;11.536;2024-03-23T09:38:34;94804.78;;;8.43;82.69
79612;BME280;69094;48.154;11.536;2024-03-23T09:41:00;94824.16;;;8.54;82.60
79612;BME280;69094;48.154;11.536;2024-03-23T09:43:25;94816.09;;;8.45;81.25
79612;BME280;69094;48.154;11.536;2024-03-23T09:45:51;94827.91;;;8.40;77.81
79612;BME280;69094;48.154;11.536;2024-03-23T09:48:17;94829.84;;;8.40;77.85
79612;BME280;69094;48.154;11.536;2024-03-23T09:50:44;94847.72;;;8.32;77.89
79612;BME280;69094;48.154;11.536;2024-03-23T09:53:11;94838.03;;;8.23;78.57
79612;BME280;69094;48.154;11.536;2024-03-23T09:55:38;94850.66;;;8.18;79.40
79612;BME280;69094;48.154;11.536;2024-03-23T09:58:04;94862.16;;;8.15;79.88
79612;BME280;69094;48.154;11.536;2024-03-23T10:00:36;94856.25;;;8.13;79.64
79612;BME280;69094;48.154;11.536;2024-03-23T10:03:02;94868.75;;;7.97;78.65
79612;BME280;69094;48.154;11.536;2024-03-23T10:05:28;94875.97;;;7.84;79.51
79612;BME280;69094;48.154;11.536;2024-03-23T10:07:54;94867.25;;;7.70;78.03
79612;BME280;69094;48.154;11.536;2024-03-23T10:10:20;94857.56;;;7.60;77.33
79612;BME280;69094;48.154;11.536;2024-03-23T10:12:47;94850.38;;;7.64;76.41
79612;BME280;69094;48.154;11.536;2024-03-23T10:15:20;94847.50;;;7.69;76.14
79612;BME280;69094;48.154;11.536;2024-03-23T10:17:46;94861.03;;;7.69;77.67
79612;BME280;69094;48.154;11.536;2024-03-23T10:20:12;94851.31;;;7.77;77.02
79612;BME280;69094;48.154;11.536;2024-03-23T10:22:38;94866.75;;;7.76;77.53
79612;BME280;69094;48.154;11.536;2024-03-23T10:25:09;94877.94;;;7.66;78.35
79612;BME280;69094;48.154;11.536;2024-03-23T10:27:35;94883.66;;;7.73;80.04
79612;BME280;69094;48.154;11.536;2024-03-23T10:30:10;94885.72;;;7.76;81.00
79612;BME280;69094;48.154;11.536;2024-03-23T10:32:37;94879.81;;;7.83;80.22
79612;BME280;69094;48.154;11.536;2024-03-23T10:35:15;94883.00;;;7.85;79.66
79612;BME280;69094;48.154;11.536;2024-03-23T10:37:41;94879.34;;;7.72;78.79
79612;BME280;69094;48.154;11.536;2024-03-23T10:40:09;94880.63;;;7.75;80.56
79612;BME280;69094;48.154;11.536;2024-03-23T10:42:37;94895.28;;;7.83;80.64
79612;BME280;69094;48.154;11.536;2024-03-23T10:45:04;94906.56;;;7.85;79.05
79612;BME280;69094;48.154;11.536;2024-03-23T10:47:31;94895.13;;;7.79;77.68
79612;BME280;69094;48.154;11.536;2024-03-23T10:49:57;94909.19;;;7.55;75.19
79612;BME280;69094;48.154;11.536;2024-03-23T10:52:22;94915.41;;;7.47;74.43
79612;BME280;69094;48.154;11.536;2024-03-23T10:54:53;94924.50;;;7.51;72.95
79612;BME280;69094;48.154;11.536;2024-03-23T10:57:50;94926.56;;;7.54;72.42
79612;BME280;69094;48.154;11.536;2024-03-23T11:00:17;94938.34;;;7.49;72.46
79612;BME280;69094;48.154;11.536;2024-03-23T11:02:42;94932.75;;;7.54;71.90
79612;BME280;69094;48.154;11.536;2024-03-23T11:05:41;94941.06;;;7.58;72.29
79612;BME280;69094;48.154;11.536;2024-03-23T11:08:00;94945.34;;;7.59;71.67
79612;BME280;69094;48.154;11.536;2024-03-23T11:10:26;94952.66;;;7.50;72.73
79612;BME280;69094;48.154;11.536;2024-03-23T11:12:53;94950.94;;;7.45;72.21
79612;BME280;69094;48.154;11.536;2024-03-23T11:15:18;94961.88;;;7.58;73.05
79612;BME280;69094;48.154;11.536;2024-03-23T11:18:02;94973.97;;;7.77;73.08
79612;BME280;69094;48.154;11.536;2024-03-23T11:20:32;94977.16;;;7.80;72.85
79612;BME280;69094;48.154;11.536;2024-03-23T11:22:59;94986.56;;;7.82;72.70
79612;BME280;69094;48.154;11.536;2024-03-23T11:25:26;94953.88;;;7.87;72.36
79612;BME280;69094;48.154;11.536;2024-03-23T11:27:53;94933.94;;;7.92;72.16
79612;BME280;69094;48.154;11.536;2024-03-23T11:31:10;94938.25;;;7.93;70.23
79612;BME280;69094;48.154;11.536;2024-03-23T11:33:36;94938.28;;;7.84;70.95
79612;BME280;69094;48.154;11.536;2024-03-23T11:36:02;94959.94;;;7.84;72.10
79612;BME280;69094;48.154;11.536;2024-03-23T11:38:27;94946.75;;;7.74;72.80
79612;BME280;69094;48.154;11.536;2024-03-23T11:40:52;94948.81;;;7.77;71.62
79612;BME280;69094;48.154;11.536;2024-03-23T11:43:20;94971.25;;;7.77;71.71
79612;BME280;69094;48.154;11.536;2024-03-23T11:45:48;94955.00;;;7.86;72.13
79612;BME280;69094;48.154;11.536;2024-03-23T11:48:19;94956.28;;;7.97;70.32
79612;BME280;69094;48.154;11.536;2024-03-23T11:50:49;94962.78;;;8.05;70.89
79612;BME280;69094;48.154;11.536;2024-03-23T11:56:37;94938.16;;;8.28;70.95
79612;BME280;69094;48.154;11.536;2024-03-23T11:59:02;94930.88;;;8.49;70.37
79612;BME280;69094;48.154;11.536;2024-03-23T12:01:27;94932.97;;;8.52;69.88
79612;BME280;69094;48.154;11.536;2024-03-23T12:03:53;94942.41;;;8.37;67.44
79612;BME280;69094;48.154;11.536;2024-03-23T12:06:19;94950.44;;;8.16;69.21
79612;BME280;69094;48.154;11.536;2024-03-23T12:08:45;94942.84;;;8.01;65.94
79612;BME280;69094;48.154;11.536;2024-03-23T12:14:34;94956.28;;;7.97;66.45
79612;BME280;69094;48.154;11.536;2024-03-23T12:17:13;94949.34;;;8.65;69.15
79612;BME280;69094;48.154;11.536;2024-03-23T12:19:39;94930.00;;;9.17;60.55
79612;BME280;69094;48.154;11.536;2024-03-23T12:22:06;94945.31;;;8.92;61.14
79612;BME280;69094;48.154;11.536;2024-03-23T12:24:32;94949.50;;;8.89;61.61
79612;BME280;69094;48.154;11.536;2024-03-23T12:27:19;94953.75;;;8.69;56.90
79612;BME280;69094;48.154;11.536;2024-03-23T12:29:44;94932.63;;;8.54;56.92
79612;BME280;69094;48.154;11.536;2024-03-23T12:32:12;94933.78;;;8.44;57.67
79612;BME280;69094;48.154;11.536;2024-03-23T12:34:38;94926.09;;;8.55;55.60
79612;BME280;69094;48.154;11.536;2024-03-23T12:37:04;94921.19;;;8.69;55.82
79612;BME280;69094;48.154;11.536;2024-03-23T12:39:29;94936.66;;;8.77;55.87
79612;BME280;69094;48.154;11.536;2024-03-23T12:41:55;94939.03;;;8.79;56.61
79612;BME280;69094;48.154;11.536;2024-03-23T12:44:20;94941.00;;;8.70;56.13
79612;BME280;69094;48.154;11.536;2024-03-23T12:46:46;94940.53;;;8.68;57.13
79612;BME280;69094;48.154;11.536;2024-03-23T12:49:11;94928.97;;;8.79;56.45
79612;BME280;69094;48.154;11.536;2024-03-23T12:51:37;94926.63;;;8.69;55.97
79612;BME280;69094;48.154;11.536;2024-03-23T12:54:03;94925.56;;;8.61;56.05
79612;BME280;69094;48.154;11.536;2024-03-23T12:56:28;94925.06;;;8.68;56.74
79612;BME280;69094;48.154;11.536;2024-03-23T12:58:54;94935.59;;;8.70;56.62
79612;BME280;69094;48.154;11.536;2024-03-23T13:01:24;94922.66;;;8.67;56.33
79612;BME280;69094;48.154;11.536;2024-03-23T13:03:50;94917.13;;;8.84;55.62
79612;BME280;69094;48.154;11.536;2024-03-23T13:06:16;94932.13;;;8.81;56.54
79612;BME280;69094;48.154;11.536;2024-03-23T13:08:46;94936.84;;;8.93;55.50
79612;BME280;69094;48.154;11.536;2024-03-23T13:11:13;94941.78;;;9.00;55.94
79612;BME280;69094;48.154;11.536;2024-03-23T13:13:39;94936.19;;;8.96;55.29
79612;BME280;69094;48.154;11.536;2024-03-23T13:16:05;94939.78;;;8.88;54.67
79612;BME280;69094;48.154;11.536;2024-03-23T13:18:31;94929.31;;;8.78;54.47
79612;BME280;69094;48.154;11.536;2024-03-23T13:20:57;94903.34;;;8.68;53.01
79612;BME280;69094;48.154;11.536;2024-03-23T13:23:22;94898.47;;;8.82;53.52
79612;BME280;69094;48.154;11.536;2024-03-23T13:25:55;94899.66;;;8.73;53.62
79612;BME280;69094;48.154;11.536;2024-03-23T13:28:23;94891.06;;;8.92;56.44
79612;BME280;69094;48.154;11.536;2024-03-23T13:30:55;94890.41;;;8.95;53.30
79612;BME280;69094;48.154;11.536;2024-03-23T13:33:21;94890.53;;;8.77;52.78
79612;BME280;69094;48.154;11.536;2024-03-23T13:35:53;94893.28;;;8.69;51.84
79612;BME280;69094;48.154;11.536;2024-03-23T13:38:20;94900.44;;;8.73;52.14
79612;BME280;69094;48.154;11.536;2024-03-23T13:40:55;94908.00;;;8.68;52.57
79612;BME280;69094;48.154;11.536;2024-03-23T13:43:21;94898.59;;;8.65;52.57
79612;BME280;69094;48.154;11.536;2024-03-23T13:45:53;94906.53;;;8.70;53.57
79612;BME280;69094;48.154;11.536;2024-03-23T13:48:23;94914.88;;;8.65;54.14
79612;BME280;69094;48.154;11.536;2024-03-23T13:53:24;94935.59;;;7.67;60.53
79612;BME280;69094;48.154;11.536;2024-03-23T13:55:49;94935.50;;;7.28;63.74